San Antonio, Valles Caldera, New Mexico Weather observations

Data are for 10 minute period ending at time listed.
 Day   Time   Solar   Ave.   Ave.  Ave.  Vector  Max.   Baro.   Total    
  of    of     Rad.   Air    Rel.  Wind   Wind   Wind  Press.  Precip.   
Year   Day            Temp.  Hum.  Speed  Dir.   Gust                    
2016   (MST)  Kw/m2    F      %     mph   deg.    mph    mb.     in.     
-------------------------------------------------------------------------
 182   16:30   0.21   72.4    30    5.4   235     9.0   99999.0    0.00 
 182   16:40   0.31   72.2    31    4.7   216     7.2   99999.0    0.00 
 182   16:50   0.28   72.6    30    7.1   251    11.9   99999.0    0.00 
 182   17:00   0.32   72.6    31    5.5   247     8.4   99999.0    0.00 
 182   17:10   0.14   71.9    32    7.6   273    11.3   99999.0    0.00 
 182   17:20   0.13   70.5    37    6.4   311    11.9   99999.0    0.00 
 182   17:30   0.11   69.7    39    7.0   297    11.3   99999.0    0.00 
 182   17:40   0.08   68.8    41    5.8   307    11.3   99999.0    0.00 
 182   17:50   0.06   68.0    42    6.7   314    13.1   99999.0    0.00 
 182   18:00   0.07   67.2    45    5.9   312    13.1   99999.0    0.00 
 182   18:10   0.16   66.7    46    7.1   326    13.1   99999.0    0.00 
 182   18:20   0.18   66.8    47    7.0     8    13.1   99999.0    0.00 
 182   18:30   0.16   66.4    48    6.1   333    11.3   99999.0    0.00 
 182   18:40   0.09   65.8    49    5.7   351    11.3   99999.0    0.00 
 182   18:50   0.08   64.9    53    5.7   357    11.3   99999.0    0.00 
 182   19:00   0.05   63.8    54    5.1   358    11.9   99999.0    0.00 
 182   19:10   0.03   63.3    54    4.3    32     9.6   99999.0    0.00 
 182   19:20   0.01   62.3    57    4.3   110     6.6   99999.0    0.00 
 182   19:30   0.00   60.5    61    3.6   114     4.8   99999.0    0.00 
 182   19:40   0.00   60.5    61    3.4   109     5.4   99999.0    0.00 
 182   19:50   0.00   60.1    62    1.2   100     3.0   99999.0    0.00 
 182   20:00   0.00   59.9    62    0.0     0     0.0   99999.0    0.00 
 182   20:10   0.00   59.8    62    0.9   360     3.0   99999.0    0.00 
 182   20:20   0.00   59.8    62    0.7    34     2.4   99999.0    0.00 
 182   20:30   0.00   59.0    64    0.3    96     2.4   99999.0    0.00 
 182   20:40   0.00   57.8    66    0.3    42     1.8   99999.0    0.00 
 182   20:50   0.00   57.1    66    1.7    38     3.6   99999.0    0.00 
 182   21:00   0.00   56.6    67    2.0    44     3.6   99999.0    0.00 
 182   21:10   0.00   56.2    67    0.9    37     3.6   99999.0    0.00 
 182   21:20   0.00   55.5    68    0.0     0     0.0   99999.0    0.00 
 182   21:30   0.00   54.9    68    0.0     0     0.0   99999.0    0.00 
 182   21:40   0.00   54.7    69    0.0     0     0.0   99999.0    0.00 
 182   21:50   0.00   54.4    71    0.2   162     2.4   99999.0    0.00 
 182   22:00   0.00   53.5    74    0.4    58     2.4   99999.0    0.00 
 182   22:10   0.00   53.6    75    0.0   342     1.8   99999.0    0.00 
 182   22:20   0.00   53.2    75    0.4   326     2.4   99999.0    0.00 
 182   22:30   0.00   53.1    78    0.0     0     0.0   99999.0    0.00 
 182   22:40   0.00   52.2    80    1.9   283     3.6   99999.0    0.00 
 182   22:50   0.00   52.2    80    4.5   341     7.2   99999.0    0.00 
 182   23:00   0.00   55.0    72    2.9    10     5.4   99999.0    0.00 
 182   23:10   0.00   55.3    74    4.1    64     7.8   99999.0    0.00 
 182   23:20   0.00   55.4    73    2.6   313     5.4   99999.0    0.00 
 182   23:30   0.00   54.8    76    2.0   178     4.2   99999.0    0.00 
 182   23:40   0.00   54.3    78    4.4    23    10.2   99999.0    0.00 
 182   23:50   0.00   54.7    77    3.1   181     6.6   99999.0    0.00 
 183    0:00   0.00   52.6    83    3.1    40     4.2   99999.0    0.00 
 183    0:10   0.00   52.4    84    2.9    30     4.2   99999.0    0.00 
 183    0:20   0.00   52.5    82    1.4    88     3.0   99999.0    0.00 
 183    0:30   0.00   53.0    80    2.0    61     3.6   99999.0    0.00 
 183    0:40   0.00   53.1    80    1.5   312     3.0   99999.0    0.00 
 183    0:50   0.00   52.6    81    1.4   251     3.6   99999.0    0.00 
 183    1:00   0.00   51.7    84    0.8    83     2.4   99999.0    0.00 
 183    1:10   0.00   51.7    84    0.4    56     1.8   99999.0    0.00 
 183    1:20   0.00   51.6    84    0.1   257     1.2   99999.0    0.00 
 183    1:30   0.00   51.3    84    0.3    17     1.8   99999.0    0.00 
 183    1:40   0.00   51.1    85    0.3    11     1.8   99999.0    0.00 
 183    1:50   0.00   51.1    86    0.2   314     1.2   99999.0    0.00 
 183    2:00   0.00   50.9    87    0.6   264     1.8   99999.0    0.00 
 183    2:10   0.00   50.9    88    1.6    60     5.4   99999.0    0.00 
 183    2:20   0.00   52.3    85    3.9    57     8.4   99999.0    0.00 
 183    2:30   0.00   52.7    84    3.0   295     4.8   99999.0    0.00 
 183    2:40   0.00   51.3    88    3.0   333     4.2   99999.0    0.01 
 183    2:50   0.00   50.9    89    2.1     1     3.0   99999.0    0.00 
 183    3:00   0.00   50.5    89    1.7    55     3.0   99999.0    0.00 
 183    3:10   0.00   49.9    90    1.7    30     3.6   99999.0    0.00 
 183    3:20   0.00   49.5    91    2.1    29     3.6   99999.0    0.00 
 183    3:30   0.00   49.4    91    1.1    57     3.0   99999.0    0.00 
 183    3:40   0.00   49.1    91    1.9     4     6.0   99999.0    0.00 
 183    3:50   0.00   48.5    91    1.7    63     3.6   99999.0    0.00 
 183    4:00   0.00   48.3    92    1.3    65     2.4   99999.0    0.00 
 183    4:10   0.00   48.5    91    0.6    46     2.4   99999.0    0.00 
 183    4:20   0.00   48.3    91    1.2    25     3.0   99999.0    0.00 
 183    4:30   0.00   47.8    91    0.4   250     2.4   99999.0    0.00 
 183    4:40   0.00   46.6    92    0.7    80     3.0   99999.0    0.00 
 183    4:50   0.00   46.5    93    0.2    61     1.8   99999.0    0.00 
 183    5:00   0.00   46.7    93    1.0   289     3.6   99999.0    0.00 
 183    5:10   0.01   46.4    93    0.4    66     2.4   99999.0    0.00 
 183    5:20   0.03   46.9    94    1.0    47     3.0   99999.0    0.00 
 183    5:30   0.04   47.6    94    0.9    39     2.4   99999.0    0.00 
 183    5:40   0.06   47.8    93    0.4   267     2.4   99999.0    0.00 
 183    5:50   0.07   48.1    93    2.0   144     3.0   99999.0    0.00 
 183    6:00   0.07   48.7    92    1.5   204     3.0   99999.0    0.00 
 183    6:10   0.06   49.0    91    2.1   291     3.6   99999.0    0.00 
 183    6:20   0.05   49.0    90    1.8   280     3.0   99999.0    0.00 
 183    6:30   0.06   49.1    90    2.0   281     3.0   99999.0    0.00 
 183    6:40   0.05   49.4    91    2.5   259     4.2   99999.0    0.00 
 183    6:50   0.07   49.8    90    1.0   294     3.0   99999.0    0.00 
 183    7:00   0.09   50.6    90    1.4    54     4.2   99999.0    0.00 
 183    7:10   0.16   51.8    89    2.6   277     4.8   99999.0    0.00 
 183    7:20   0.21   53.3    87    2.4   279     4.2   99999.0    0.00 
 183    7:30   0.22   54.8    84    2.3   281     4.8   99999.0    0.00 
 183    7:40   0.28   58.2    71    4.1   142     9.0   99999.0    0.00 
 183    7:50   0.18   59.5    66    5.9   122    11.3   99999.0    0.00 
 183    8:00   0.37   60.3    63    6.1    95     9.6   99999.0    0.00 
 183    8:10   0.42   61.8    60    6.8   100    10.8   99999.0    0.00 
 183    8:20   0.59   63.7    57    5.8   126     9.6   99999.0    0.00 
 183    8:30   0.39   65.0    52    4.7   110     9.6   99999.0    0.00 
 183    8:40   0.36   64.3    53    6.0   102    11.9   99999.0    0.00 
 183    8:50   0.35   64.5    51    4.6   112     9.6   99999.0    0.00 
 183    9:00   0.41   65.1    50    5.0   193     9.6   99999.0    0.00 
 183    9:10   0.56   66.8    48    3.4   139     6.6   99999.0    0.00 
 183    9:20   0.41   67.2    47    4.4   231    10.2   99999.0    0.00 
 183    9:30   0.38   66.4    48    7.4   238    13.7   99999.0    0.00 
 183    9:40   0.49   66.7    46    5.2   193    11.9   99999.0    0.00 
 183    9:50   0.53   67.7    47    6.8   217    11.9   99999.0    0.00 
 183   10:00   0.65   67.9    45    7.2   213    13.1   99999.0    0.00 
 183   10:10   0.55   68.3    44    7.1   236    12.5   99999.0    0.00 
 183   10:20   0.54   68.0    45    6.6   221    11.3   99999.0    0.00 
 183   10:30   0.51   67.9    44    6.3   223    11.9   99999.0    0.00 
 183   10:40   0.46   67.5    45    6.1   233    12.5   99999.0    0.00 
 183   10:50   0.59   68.3    46    7.5   227    13.1   99999.0    0.00 
 183   11:00   0.72   68.0    46    8.3   223    11.9   99999.0    0.00 
 183   11:10   0.62   68.8    45    6.3   211    12.5   99999.0    0.00 
 183   11:20   0.67   69.0    44    8.1   211    13.7   99999.0    0.00 
 183   11:30   0.45   67.9    46    7.9   225    13.1   99999.0    0.00 
 183   11:40   0.12   65.4    52    7.6   228    14.3   99999.0    0.00 
 183   11:50   0.14   62.9    58    6.5   221    11.3   99999.0    0.00 
 183   12:00   0.34   63.7    50    5.0   274    11.3   99999.0    0.00 
 183   12:10   0.60   66.2    47    6.6   214    16.1   99999.0    0.00 
 183   12:20   0.49   67.2    48    6.3   221    10.8   99999.0    0.00 
 183   12:30   0.42   67.0    49    4.2   199     9.0   99999.0    0.00 
 183   12:40   0.31   66.7    48    8.1   203    13.7   99999.0    0.00 
 183   12:50   0.21   66.1    47    7.2   204    12.5   99999.0    0.00 
 183   13:00   0.12   65.6    48    8.9   200    16.1   99999.0    0.00 
 183   13:10   0.16   64.1    55    7.7   160    13.7   99999.0    0.00 
 183   13:20   0.22   63.6    56    5.5   173    11.9   99999.0    0.00 
 183   13:30   0.13   63.3    57    7.0   204    14.9   99999.0    0.00 
 183   13:40   0.21   60.0    69    9.2   250    16.1   99999.0    0.00 
 183   13:50   0.29   60.2    68    9.0   264    14.3   99999.0    0.00 
 183   14:00   0.25   61.1    66    8.1   269    13.1   99999.0    0.00 
 183   14:10   0.08   60.6    66    8.3   262    13.1   99999.0    0.00 
 183   14:20   0.07   59.0    71    8.5   258    14.9   99999.0    0.00 
 183   14:30   0.10   56.9    79    6.4   248    10.2   99999.0    0.00 
 183   14:40   0.07   56.2    81    7.0   241    10.8   99999.0    0.01 
 183   14:50   0.08   55.3    85    5.8   258     9.0   99999.0    0.01 
 183   15:00   0.17   55.1    88    3.3   237     7.8   99999.0    0.02 
 183   15:10   0.18   55.4    86    7.0   219    13.1   99999.0    0.00 
 183   15:20   0.27   55.5    86    7.9   219    13.1   99999.0    0.00 
 183   15:30   0.36   56.3    86    7.1   216    11.9   99999.0    0.00 
 183   15:40   0.24   56.4    83    7.4   206    13.7   99999.0    0.00 
 183   15:50   0.18   55.9    83    6.1   204    11.3   99999.0    0.00 
 183   16:00   0.25   56.9    76    3.9   184     7.8   99999.0    0.00 
 183   16:10   0.26   57.8    74    4.3   174     9.6   99999.0    0.00 
 183   16:20   0.19   58.1    70    4.4   175     9.6   99999.0    0.00 

Return to San Antonio, Valles Caldera graphs page.


Western Regional Climate Center,wrcc@dri.edu